createdAt,value
2023-04-19T00:00:14.774Z,10.50
2023-04-19T00:03:03.527Z,10.49
2023-04-19T00:05:32.128Z,10.47
2023-04-19T00:08:00.190Z,10.43
2023-04-19T00:10:28.123Z,10.39
2023-04-19T00:12:56.153Z,10.37
2023-04-19T00:15:24.190Z,10.34
2023-04-19T00:17:52.153Z,10.31
2023-04-19T00:20:22.150Z,10.26
2023-04-19T00:22:50.354Z,10.20
2023-04-19T00:25:18.197Z,10.16
2023-04-19T00:27:46.130Z,10.09
2023-04-19T00:30:14.672Z,10.01
2023-04-19T00:32:42.681Z,9.94
2023-04-19T00:35:11.164Z,9.88
2023-04-19T00:37:38.983Z,9.83
2023-04-19T00:40:07.886Z,9.82
2023-04-19T00:42:38.010Z,9.84
2023-04-19T00:45:07.292Z,9.85
2023-04-19T00:47:36.598Z,9.85
2023-04-19T00:50:06.156Z,9.88
2023-04-19T00:52:34.777Z,9.88
2023-04-19T00:55:03.077Z,9.86
2023-04-19T00:57:31.579Z,9.87
2023-04-19T00:59:59.728Z,9.86
2023-04-19T01:02:28.766Z,9.84
2023-04-19T01:04:57.857Z,9.82
2023-04-19T01:07:25.984Z,9.82
2023-04-19T01:09:54.037Z,9.78
2023-04-19T01:12:23.339Z,9.78
2023-04-19T01:14:51.329Z,9.75
2023-04-19T01:17:21.239Z,9.72
2023-04-19T01:19:49.071Z,9.65
2023-04-19T01:22:19.682Z,9.57
2023-04-19T01:24:47.704Z,9.53
2023-04-19T01:27:17.612Z,9.44
2023-04-19T01:29:46.188Z,9.31
2023-04-19T01:32:13.987Z,9.11
2023-04-19T01:34:43.030Z,8.90
2023-04-19T01:37:11.000Z,8.74
2023-04-19T01:39:38.793Z,8.67
2023-04-19T01:42:08.678Z,8.62
2023-04-19T01:44:37.857Z,8.56
2023-04-19T01:47:06.039Z,8.51
2023-04-19T01:49:34.136Z,8.45
2023-04-19T01:52:02.044Z,8.45
2023-04-19T01:54:29.968Z,8.45
2023-04-19T01:56:58.661Z,8.46
2023-04-19T01:59:26.758Z,8.45
2023-04-19T02:01:54.622Z,8.44
2023-04-19T02:04:22.588Z,8.45
2023-04-19T02:06:50.551Z,8.43
2023-04-19T02:09:18.391Z,8.44
2023-04-19T02:11:47.144Z,8.47
2023-04-19T02:14:15.331Z,8.47
2023-04-19T02:16:43.565Z,8.45
2023-04-19T02:19:11.699Z,8.39
2023-04-19T02:21:39.986Z,8.37
2023-04-19T02:24:08.270Z,8.34
2023-04-19T02:26:36.635Z,8.29
2023-04-19T02:29:07.142Z,8.27
2023-04-19T02:31:36.603Z,8.26
2023-04-19T02:34:04.523Z,8.26
2023-04-19T02:36:34.537Z,8.25
2023-04-19T02:39:05.723Z,8.26
2023-04-19T02:41:33.646Z,8.28
2023-04-19T02:44:02.881Z,8.29
2023-04-19T02:46:31.075Z,8.24
2023-04-19T02:49:01.396Z,8.08
2023-04-19T02:51:29.741Z,8.03
2023-04-19T02:53:58.425Z,8.00
2023-04-19T02:56:26.394Z,7.89
2023-04-19T02:58:55.390Z,7.70
2023-04-19T03:01:23.529Z,7.57
2023-04-19T03:03:51.889Z,7.46
2023-04-19T03:06:20.698Z,7.35
2023-04-19T03:08:49.022Z,7.30
2023-04-19T03:11:18.400Z,7.26
2023-04-19T03:13:47.907Z,7.29
2023-04-19T03:16:16.472Z,7.32
2023-04-19T03:18:45.820Z,7.35
2023-04-19T03:21:15.421Z,7.32
2023-04-19T03:23:50.380Z,7.31
2023-04-19T03:26:19.211Z,7.33
2023-04-19T03:28:48.679Z,7.33
2023-04-19T03:31:42.648Z,7.35
2023-04-19T03:34:12.983Z,7.33
2023-04-19T03:36:43.655Z,7.28
2023-04-19T03:39:11.930Z,7.26
2023-04-19T03:41:42.220Z,7.29
2023-04-19T03:44:20.884Z,7.31
2023-04-19T03:46:49.075Z,7.23
2023-04-19T03:49:20.535Z,7.25
2023-04-19T03:51:52.887Z,7.28
2023-04-19T03:54:21.184Z,7.28
2023-04-19T03:56:49.188Z,7.22
2023-04-19T03:59:17.126Z,7.22
2023-04-19T04:01:46.342Z,7.20
2023-04-19T04:04:14.665Z,7.16
2023-04-19T04:06:43.037Z,7.15
2023-04-19T04:09:11.201Z,7.13
2023-04-19T04:11:39.063Z,7.14
2023-04-19T04:14:07.471Z,7.18
2023-04-19T04:16:37.811Z,7.14
2023-04-19T04:19:06.656Z,7.12
2023-04-19T04:21:36.161Z,7.06
2023-04-19T04:24:07.975Z,7.03
2023-04-19T04:26:45.919Z,7.01
2023-04-19T04:29:29.519Z,7.00
2023-04-19T04:31:59.040Z,6.96
2023-04-19T04:34:29.930Z,6.94
2023-04-19T04:37:04.851Z,6.91
2023-04-19T04:39:39.057Z,6.91
2023-04-19T04:42:10.334Z,6.90
2023-04-19T04:44:39.297Z,6.87
2023-04-19T04:47:07.616Z,6.89
2023-04-19T04:49:40.556Z,6.93
2023-04-19T04:52:09.788Z,6.92
2023-04-19T04:54:44.144Z,6.95
2023-04-19T04:57:20.398Z,6.94
2023-04-19T04:59:48.729Z,6.97
2023-04-19T05:02:18.921Z,6.99
2023-04-19T05:04:47.114Z,7.01
2023-04-19T05:07:15.208Z,7.06
2023-04-19T05:09:43.816Z,7.07
2023-04-19T05:12:13.514Z,7.05
2023-04-19T05:14:41.838Z,7.08
2023-04-19T05:17:09.682Z,7.05
2023-04-19T05:19:37.844Z,7.04
2023-04-19T05:22:07.588Z,7.09
2023-04-19T05:24:36.743Z,7.11
2023-04-19T05:27:04.716Z,7.12
2023-04-19T05:29:32.708Z,7.16
2023-04-19T05:32:00.816Z,7.14
2023-04-19T05:34:31.792Z,7.11
2023-04-19T05:37:00.839Z,7.10
2023-04-19T05:39:28.763Z,7.08
2023-04-19T05:41:56.687Z,7.10
2023-04-19T05:44:24.766Z,7.10
2023-04-19T05:46:52.524Z,7.08
2023-04-19T05:49:32.135Z,7.10
2023-04-19T05:52:09.687Z,7.14
2023-04-19T05:54:45.196Z,7.20
2023-04-19T05:57:13.578Z,7.21
2023-04-19T05:59:41.466Z,7.23
2023-04-19T06:02:10.933Z,7.30
2023-04-19T06:04:39.204Z,7.30
2023-04-19T06:07:17.440Z,7.31
2023-04-19T06:09:55.159Z,7.30
2023-04-19T06:12:22.991Z,7.32
2023-04-19T06:14:51.327Z,7.38
2023-04-19T06:17:24.755Z,7.41
2023-04-19T06:19:53.255Z,7.46
2023-04-19T06:22:21.636Z,7.51
2023-04-19T06:24:49.739Z,7.55
2023-04-19T06:27:17.865Z,7.57
2023-04-19T06:29:45.812Z,7.62
2023-04-19T06:32:13.819Z,7.62
2023-04-19T06:34:41.689Z,7.65
2023-04-19T06:37:09.491Z,7.69
2023-04-19T06:39:37.504Z,7.76
2023-04-19T06:42:05.780Z,7.85
2023-04-19T06:44:34.538Z,7.98
2023-04-19T06:47:02.691Z,8.04
2023-04-19T06:49:30.624Z,8.11
2023-04-19T06:51:58.603Z,8.15
2023-04-19T06:54:26.438Z,8.24
2023-04-19T06:56:56.541Z,8.28
2023-04-19T06:59:28.457Z,8.32
2023-04-19T07:01:58.388Z,8.38
2023-04-19T07:04:27.148Z,8.39
2023-04-19T07:06:55.132Z,8.34
2023-04-19T07:09:22.959Z,8.32
2023-04-19T07:11:51.621Z,8.33
2023-04-19T07:14:19.629Z,8.33
2023-04-19T07:16:47.887Z,8.33
2023-04-19T07:19:16.086Z,8.33
2023-04-19T07:21:43.925Z,8.31
2023-04-19T07:24:11.995Z,8.33
2023-04-19T07:26:39.904Z,8.33
2023-04-19T07:29:08.596Z,8.30
2023-04-19T07:31:37.135Z,8.32
2023-04-19T07:34:05.045Z,8.35
2023-04-19T07:36:35.023Z,8.37
2023-04-19T07:39:02.942Z,8.42
2023-04-19T07:41:32.586Z,8.47
2023-04-19T07:44:00.452Z,8.48
2023-04-19T07:46:28.304Z,8.41
2023-04-19T07:48:56.281Z,8.44
2023-04-19T07:51:24.969Z,8.44
2023-04-19T07:53:52.778Z,8.53
2023-04-19T07:56:22.960Z,8.66
2023-04-19T07:59:04.164Z,8.81
2023-04-19T08:01:35.792Z,8.95
2023-04-19T08:04:04.913Z,9.07
2023-04-19T08:06:33.231Z,9.13
2023-04-19T08:09:00.996Z,9.18
2023-04-19T08:11:28.898Z,9.25
2023-04-19T08:14:06.774Z,9.30
2023-04-19T08:19:16.053Z,9.49
2023-04-19T08:21:43.819Z,9.54
2023-04-19T08:24:11.889Z,9.61
2023-04-19T08:26:39.817Z,9.65
2023-04-19T08:29:07.647Z,9.66
2023-04-19T08:31:35.878Z,9.66
2023-04-19T08:34:04.092Z,9.65
2023-04-19T08:36:40.959Z,9.67
2023-04-19T08:39:24.670Z,9.75
2023-04-19T08:42:18.440Z,10.09
2023-04-19T08:45:23.448Z,10.40
2023-04-19T08:47:58.764Z,10.62
2023-04-19T08:50:35.459Z,10.76
2023-04-19T08:53:24.078Z,10.81
2023-04-19T08:56:12.816Z,10.92
2023-04-19T08:59:03.979Z,11.02
2023-04-19T09:01:36.039Z,11.12
2023-04-19T09:04:17.184Z,11.38
2023-04-19T09:06:49.291Z,11.49
2023-04-19T09:11:54.354Z,11.52
2023-04-19T09:14:23.345Z,11.79
2023-04-19T09:16:52.477Z,12.09
2023-04-19T09:19:24.841Z,12.20
2023-04-19T09:21:55.096Z,12.16
2023-04-19T09:27:13.739Z,12.60
2023-04-19T09:29:41.878Z,12.73
2023-04-19T09:32:11.084Z,12.92
2023-04-19T09:34:52.373Z,12.98
2023-04-19T09:39:56.326Z,13.07
2023-04-19T09:42:47.214Z,13.22
2023-04-19T09:45:29.121Z,13.39
2023-04-19T09:48:04.456Z,13.40
2023-04-19T09:50:34.017Z,13.39
2023-04-19T09:53:11.270Z,13.42
2023-04-19T09:55:52.708Z,13.28
2023-04-19T09:58:34.333Z,13.08
2023-04-19T10:01:14.836Z,13.04
2023-04-19T10:03:46.694Z,12.99
2023-04-19T10:08:52.233Z,13.11
2023-04-19T10:11:23.008Z,13.28
2023-04-19T10:14:22.449Z,13.33
2023-04-19T10:16:50.770Z,13.30
2023-04-19T10:19:22.056Z,13.12
2023-04-19T10:21:51.730Z,12.85
2023-04-19T10:24:21.651Z,12.63
2023-04-19T10:27:13.007Z,12.51
2023-04-19T10:30:07.498Z,12.42
2023-04-19T10:32:41.177Z,12.40
2023-04-19T10:35:19.487Z,12.49
2023-04-19T10:38:12.952Z,12.56
2023-04-19T10:41:02.094Z,12.69
2023-04-19T10:43:34.733Z,12.90
2023-04-19T10:46:32.056Z,13.01
2023-04-19T10:49:01.562Z,13.10
2023-04-19T10:51:33.984Z,13.23
2023-04-19T10:54:04.002Z,13.26
2023-04-19T10:56:34.972Z,13.35
2023-04-19T10:59:10.598Z,13.45
2023-04-19T11:01:43.388Z,13.52
2023-04-19T11:04:55.355Z,13.64
2023-04-19T11:07:24.926Z,13.78
2023-04-19T11:09:53.053Z,13.90
2023-04-19T11:12:21.934Z,14.29
2023-04-19T11:14:54.782Z,14.73
2023-04-19T11:17:28.613Z,15.00
2023-04-19T11:20:07.177Z,15.18
2023-04-19T11:22:37.654Z,15.21
2023-04-19T11:25:14.320Z,15.08
2023-04-19T11:27:44.410Z,14.85
2023-04-19T11:30:16.681Z,14.72
2023-04-19T11:32:46.941Z,14.62
2023-04-19T11:35:18.294Z,14.50
2023-04-19T11:37:46.269Z,14.49
2023-04-19T11:40:19.286Z,14.59
2023-04-19T11:42:53.596Z,14.74
2023-04-19T11:45:40.377Z,14.87
2023-04-19T11:48:15.837Z,14.95
2023-04-19T11:50:45.409Z,15.07
2023-04-19T11:53:21.928Z,15.12
2023-04-19T11:55:52.452Z,15.20
2023-04-19T11:58:29.793Z,15.36
2023-04-19T12:01:05.024Z,15.46
2023-04-19T12:03:34.602Z,15.45
2023-04-19T12:06:04.375Z,15.48
2023-04-19T12:08:39.705Z,15.58
2023-04-19T12:11:07.784Z,15.45
2023-04-19T12:13:36.680Z,15.36
2023-04-19T12:16:05.154Z,15.19
2023-04-19T12:18:51.740Z,15.03
2023-04-19T12:21:28.113Z,14.99
2023-04-19T12:23:57.556Z,14.98
2023-04-19T12:26:28.427Z,14.91
2023-04-19T12:28:57.835Z,14.75
2023-04-19T12:31:26.804Z,14.70
2023-04-19T12:33:54.716Z,14.67
2023-04-19T12:36:22.731Z,14.56
2023-04-19T12:38:50.552Z,14.41
2023-04-19T12:41:18.328Z,14.23
2023-04-19T12:43:46.184Z,14.08
2023-04-19T12:46:14.003Z,13.91
2023-04-19T12:48:41.847Z,13.84
2023-04-19T12:51:09.779Z,13.83
2023-04-19T12:53:37.620Z,13.75
2023-04-19T12:56:07.697Z,13.66
2023-04-19T12:58:35.751Z,13.56
2023-04-19T13:01:03.659Z,13.46
2023-04-19T13:03:33.371Z,13.39
2023-04-19T13:06:01.616Z,13.32
2023-04-19T13:08:44.202Z,13.35
2023-04-19T13:11:15.532Z,13.48
2023-04-19T13:13:43.433Z,13.71
2023-04-19T13:16:11.592Z,13.94
2023-04-19T13:18:39.522Z,14.08
2023-04-19T13:21:08.509Z,14.18
2023-04-19T13:23:36.789Z,14.28
2023-04-19T13:26:05.061Z,14.40
2023-04-19T13:28:35.820Z,14.51
2023-04-19T13:31:06.091Z,14.54
2023-04-19T13:33:34.134Z,14.65
2023-04-19T13:36:02.296Z,14.71
2023-04-19T13:38:30.269Z,14.83
2023-04-19T13:40:59.802Z,14.92
2023-04-19T13:43:27.694Z,15.00
2023-04-19T13:45:55.662Z,15.06
2023-04-19T13:48:23.464Z,15.13
2023-04-19T13:50:52.706Z,15.09
2023-04-19T13:53:20.841Z,14.97
2023-04-19T13:55:48.886Z,14.89
2023-04-19T13:58:16.741Z,14.82
2023-04-19T14:00:45.781Z,14.70
2023-04-19T14:03:14.327Z,14.67
2023-04-19T14:05:43.045Z,14.66
2023-04-19T14:08:11.080Z,14.66
2023-04-19T14:10:40.316Z,14.56
2023-04-19T14:13:08.098Z,14.48
2023-04-19T14:15:36.254Z,14.36
2023-04-19T14:18:04.347Z,14.30
2023-04-19T14:20:32.549Z,14.24
2023-04-19T14:23:01.013Z,14.17
2023-04-19T14:25:28.842Z,14.07
2023-04-19T14:27:56.840Z,14.01
2023-04-19T14:30:26.348Z,13.96
2023-04-19T14:32:54.548Z,13.92
2023-04-19T14:35:22.519Z,13.88
2023-04-19T14:37:50.428Z,13.80
2023-04-19T14:40:20.086Z,13.76
2023-04-19T14:42:48.303Z,13.71
2023-04-19T14:45:16.078Z,13.72
2023-04-19T14:47:43.976Z,13.73
2023-04-19T14:50:12.015Z,13.68
2023-04-19T14:52:39.909Z,13.66
2023-04-19T14:55:08.964Z,13.67
2023-04-19T14:57:36.951Z,13.68
2023-04-19T15:00:05.718Z,13.63
2023-04-19T15:02:33.722Z,13.62
2023-04-19T15:05:02.237Z,13.68
2023-04-19T15:07:30.667Z,13.75
2023-04-19T15:09:59.142Z,13.86
2023-04-19T15:12:27.023Z,13.95
2023-04-19T15:14:54.868Z,14.04
2023-04-19T15:17:22.720Z,14.12
2023-04-19T15:19:50.732Z,14.05
2023-04-19T15:22:18.548Z,13.91
2023-04-19T15:24:46.663Z,13.67
2023-04-19T15:27:14.730Z,13.46
2023-04-19T15:29:42.860Z,13.23
2023-04-19T15:32:10.671Z,13.00
2023-04-19T15:34:38.502Z,12.80
2023-04-19T15:37:06.734Z,12.64
2023-04-19T15:39:34.793Z,12.50
2023-04-19T15:42:04.870Z,12.38
2023-04-19T15:44:33.397Z,12.27
2023-04-19T15:47:01.573Z,12.21
2023-04-19T15:49:31.101Z,12.19
2023-04-19T15:51:58.967Z,12.13
2023-04-19T15:54:27.288Z,12.05
2023-04-19T15:56:56.198Z,11.98
2023-04-19T15:59:24.568Z,11.88
2023-04-19T16:01:52.498Z,11.81
2023-04-19T16:04:20.771Z,11.77
2023-04-19T16:06:48.882Z,11.74
2023-04-19T16:09:16.922Z,11.67
2023-04-19T16:11:45.111Z,11.59
2023-04-19T16:14:13.071Z,11.54
2023-04-19T16:16:41.293Z,11.54
2023-04-19T16:19:09.561Z,11.55
2023-04-19T16:21:37.503Z,11.56
2023-04-19T16:24:06.057Z,11.49
2023-04-19T16:26:34.015Z,11.45
2023-04-19T16:29:01.751Z,11.38
2023-04-19T16:31:29.680Z,11.29
2023-04-19T16:33:57.755Z,11.25
2023-04-19T16:36:26.042Z,11.21
2023-04-19T16:38:53.992Z,11.17
2023-04-19T16:41:22.067Z,11.17
2023-04-19T16:43:49.990Z,11.17
2023-04-19T16:46:17.973Z,11.19
2023-04-19T16:48:46.089Z,11.18
2023-04-19T16:51:14.148Z,11.23
2023-04-19T16:53:43.008Z,11.28
2023-04-19T16:56:11.932Z,11.30
2023-04-19T16:58:40.199Z,11.31
2023-04-19T17:01:09.173Z,11.30
2023-04-19T17:03:37.325Z,11.27
2023-04-19T17:06:06.381Z,11.29
2023-04-19T17:08:34.398Z,11.29
2023-04-19T17:11:02.258Z,11.27
2023-04-19T17:13:30.149Z,11.28
2023-04-19T17:15:58.428Z,11.28
2023-04-19T17:18:26.485Z,11.29
2023-04-19T17:20:54.796Z,11.30
2023-04-19T17:23:22.875Z,11.30
2023-04-19T17:25:50.724Z,11.30
2023-04-19T17:28:18.551Z,11.28
2023-04-19T17:30:46.394Z,11.26
2023-04-19T17:33:14.279Z,11.23
2023-04-19T17:35:42.298Z,11.16
2023-04-19T17:38:11.623Z,11.13
2023-04-19T17:40:39.550Z,11.08
2023-04-19T17:43:07.393Z,11.06
2023-04-19T17:45:35.937Z,11.00
2023-04-19T17:48:04.067Z,10.94
2023-04-19T17:50:32.218Z,10.92
2023-04-19T17:53:00.284Z,10.94
2023-04-19T17:55:28.401Z,10.92
2023-04-19T17:57:56.889Z,10.86
2023-04-19T18:00:25.928Z,10.82
2023-04-19T18:02:53.879Z,10.80
2023-04-19T18:05:21.990Z,10.78
2023-04-19T18:07:49.914Z,10.75
2023-04-19T18:10:17.745Z,10.75
2023-04-19T18:12:45.571Z,10.75
2023-04-19T18:15:13.408Z,10.69
2023-04-19T18:17:41.583Z,10.66
2023-04-19T18:20:12.447Z,10.57
2023-04-19T18:22:42.432Z,10.44
2023-04-19T18:25:10.355Z,10.29
2023-04-19T18:27:38.319Z,10.17
2023-04-19T18:30:07.916Z,10.02
2023-04-19T18:32:35.917Z,9.89
2023-04-19T18:35:04.852Z,9.79
2023-04-19T18:37:32.708Z,9.68
2023-04-19T18:40:01.050Z,9.59
2023-04-19T18:42:29.233Z,9.51
2023-04-19T18:44:57.501Z,9.42
2023-04-19T18:47:26.853Z,9.32
2023-04-19T18:52:26.214Z,9.14
2023-04-19T18:54:56.346Z,9.10
2023-04-19T18:57:27.448Z,9.09
2023-04-19T18:59:57.033Z,9.09
2023-04-19T19:02:27.040Z,9.09
2023-04-19T19:05:01.178Z,9.08
2023-04-19T19:10:05.822Z,9.10
2023-04-19T19:12:42.940Z,9.14
2023-04-19T19:15:10.981Z,9.18
2023-04-19T19:17:38.918Z,9.22
2023-04-19T19:20:07.938Z,9.30
2023-04-19T19:22:35.953Z,9.34
2023-04-19T19:25:04.357Z,9.38
2023-04-19T19:27:32.179Z,9.38
2023-04-19T19:30:00.819Z,9.38
2023-04-19T19:32:32.669Z,9.38
2023-04-19T19:35:05.599Z,9.37
2023-04-19T19:37:36.951Z,9.38
2023-04-19T19:40:07.231Z,9.38
2023-04-19T19:42:35.595Z,9.38
2023-04-19T19:45:04.381Z,9.39
2023-04-19T19:47:35.739Z,9.40
2023-04-19T19:50:50.521Z,9.37
2023-04-19T19:52:53.968Z,9.39
2023-04-19T19:55:22.166Z,9.42
2023-04-19T20:02:56.171Z,9.45
2023-04-19T20:05:25.260Z,9.45
2023-04-19T20:08:10.175Z,9.45
2023-04-19T20:10:40.665Z,9.45
2023-04-19T20:13:08.750Z,9.45
2023-04-19T20:15:37.821Z,9.43
2023-04-19T20:18:06.007Z,9.42
2023-04-19T20:20:35.845Z,9.41
2023-04-19T20:23:03.836Z,9.40
2023-04-19T20:25:32.817Z,9.40
2023-04-19T20:28:02.142Z,9.40
2023-04-19T20:30:30.378Z,9.39
2023-04-19T20:32:58.311Z,9.38
2023-04-19T20:35:27.784Z,9.36
2023-04-19T20:38:02.318Z,9.34
2023-04-19T20:40:32.085Z,9.34
2023-04-19T20:43:00.152Z,9.32
2023-04-19T20:45:28.171Z,9.29
2023-04-19T20:47:58.739Z,9.32
2023-04-19T20:50:26.776Z,9.32
2023-04-19T20:52:54.903Z,9.32
2023-04-19T20:55:22.844Z,9.35
2023-04-19T20:57:51.020Z,9.35
2023-04-19T21:00:19.411Z,9.35
2023-04-19T21:02:47.495Z,9.35
2023-04-19T21:05:15.475Z,9.34
2023-04-19T21:07:43.805Z,9.34
2023-04-19T21:10:11.776Z,9.34
2023-04-19T21:12:39.760Z,9.34
2023-04-19T21:15:08.845Z,9.34
2023-04-19T21:17:36.756Z,9.33
2023-04-19T21:20:12.043Z,9.32
2023-04-19T21:22:42.094Z,9.31
2023-04-19T21:25:14.763Z,9.31
2023-04-19T21:27:42.750Z,9.31
2023-04-19T21:30:11.805Z,9.31
2023-04-19T21:32:39.728Z,9.30
2023-04-19T21:35:08.477Z,9.29
2023-04-19T21:37:37.893Z,9.26
2023-04-19T21:40:07.300Z,9.24
2023-04-19T21:42:36.172Z,9.25
2023-04-19T21:45:04.948Z,9.25
2023-04-19T21:47:32.792Z,9.24
2023-04-19T21:50:00.786Z,9.23
2023-04-19T21:52:28.893Z,9.21
2023-04-19T21:54:56.841Z,9.20
2023-04-19T21:57:27.271Z,9.20
2023-04-19T21:59:55.416Z,9.16
2023-04-19T22:02:23.751Z,9.13
2023-04-19T22:04:53.969Z,9.13
2023-04-19T22:07:24.134Z,9.10
2023-04-19T22:09:52.671Z,9.09
2023-04-19T22:12:20.602Z,9.08
2023-04-19T22:14:48.680Z,9.09
2023-04-19T22:17:18.821Z,9.08
2023-04-19T22:19:48.559Z,9.09
2023-04-19T22:22:16.407Z,9.07
2023-04-19T22:24:56.138Z,9.04
2023-04-19T22:27:25.847Z,9.02
2023-04-19T22:29:54.046Z,8.99
2023-04-19T22:32:22.329Z,8.95
2023-04-19T22:34:50.735Z,8.95
2023-04-19T22:37:18.524Z,8.90
2023-04-19T22:39:46.388Z,8.88
2023-04-19T22:42:14.213Z,8.84
2023-04-19T22:44:42.219Z,8.81
2023-04-19T22:47:11.944Z,8.80
2023-04-19T22:49:43.219Z,8.80
2023-04-19T22:52:12.155Z,8.79
2023-04-19T22:54:39.928Z,8.73
2023-04-19T22:57:07.658Z,8.66
2023-04-19T22:59:35.552Z,8.60
2023-04-19T23:02:03.535Z,8.55
2023-04-19T23:04:35.497Z,8.52
2023-04-19T23:07:04.282Z,8.49
2023-04-19T23:09:32.224Z,8.46
2023-04-19T23:12:00.870Z,8.42
2023-04-19T23:14:29.413Z,8.35
2023-04-19T23:16:57.640Z,8.32
2023-04-19T23:19:25.540Z,8.29
2023-04-19T23:21:53.604Z,8.22
2023-04-19T23:24:21.503Z,8.14
2023-04-19T23:26:49.355Z,8.07
2023-04-19T23:29:17.560Z,8.03
2023-04-19T23:31:45.861Z,8.00
2023-04-19T23:34:14.255Z,7.99
2023-04-19T23:36:42.034Z,7.99
2023-04-19T23:39:10.025Z,8.00
2023-04-19T23:41:37.954Z,8.02
2023-04-19T23:44:06.102Z,8.02
2023-04-19T23:46:34.152Z,8.04
2023-04-19T23:49:02.136Z,8.02
2023-04-19T23:51:29.980Z,7.97
2023-04-19T23:53:57.821Z,7.91
2023-04-19T23:56:26.097Z,7.84
2023-04-19T23:58:53.868Z,7.77
